sensor_id;sensor_type;location;lat;lon;timestamp;temperature;humidity
55269;DHT22;41131;42.990;21.954;2023-02-19T00:00:06;231.00;2099.20
55269;DHT22;41131;42.990;21.954;2023-02-19T00:02:33;231.00;2099.20
55269;DHT22;41131;42.990;21.954;2023-02-19T00:05:00;231.00;2099.20
55269;DHT22;41131;42.990;21.954;2023-02-19T00:07:25;231.00;2099.20
55269;DHT22;41131;42.990;21.954;2023-02-19T00:09:51;231.00;2099.20
55269;DHT22;41131;42.990;21.954;2023-02-19T00:12:16;231.00;2099.20
55269;DHT22;41131;42.990;21.954;2023-02-19T00:14:42;231.00;2099.20
55269;DHT22;41131;42.990;21.954;2023-02-19T00:17:08;230.90;2099.20
55269;DHT22;41131;42.990;21.954;2023-02-19T00:19:33;231.00;2099.20
55269;DHT22;41131;42.990;21.954;2023-02-19T00:21:59;230.90;2099.20
55269;DHT22;41131;42.990;21.954;2023-02-19T00:24:25;230.90;2099.20
55269;DHT22;41131;42.990;21.954;2023-02-19T00:26:51;230.90;2099.20
55269;DHT22;41131;42.990;21.954;2023-02-19T00:29:19;230.90;2124.80
55269;DHT22;41131;42.990;21.954;2023-02-19T00:31:45;230.90;2124.80
55269;DHT22;41131;42.990;21.954;2023-02-19T00:34:12;231.00;2099.20
55269;DHT22;41131;42.990;21.954;2023-02-19T00:36:39;231.00;2124.80
55269;DHT22;41131;42.990;21.954;2023-02-19T00:39:06;231.00;2124.80
55269;DHT22;41131;42.990;21.954;2023-02-19T00:41:34;230.80;2124.80
55269;DHT22;41131;42.990;21.954;2023-02-19T00:44:03;230.90;2099.20
55269;DHT22;41131;42.990;21.954;2023-02-19T00:46:34;231.00;2099.20
55269;DHT22;41131;42.990;21.954;2023-02-19T00:49:02;231.00;2099.20
55269;DHT22;41131;42.990;21.954;2023-02-19T00:51:30;231.00;2099.20
55269;DHT22;41131;42.990;21.954;2023-02-19T00:53:59;231.00;2099.20
55269;DHT22;41131;42.990;21.954;2023-02-19T00:56:25;231.00;2099.20
55269;DHT22;41131;42.990;21.954;2023-02-19T00:58:52;231.10;2099.20
55269;DHT22;41131;42.990;21.954;2023-02-19T01:01:18;231.00;2099.20
55269;DHT22;41131;42.990;21.954;2023-02-19T01:03:44;231.10;2099.20
55269;DHT22;41131;42.990;21.954;2023-02-19T01:06:12;231.00;2099.20
55269;DHT22;41131;42.990;21.954;2023-02-19T01:08:39;231.00;2099.20
55269;DHT22;41131;42.990;21.954;2023-02-19T01:11:05;230.90;2099.20
55269;DHT22;41131;42.990;21.954;2023-02-19T01:13:31;230.90;2073.60
55269;DHT22;41131;42.990;21.954;2023-02-19T01:16:12;230.70;2099.20
55269;DHT22;41131;42.990;21.954;2023-02-19T01:18:38;230.70;2099.20
55269;DHT22;41131;42.990;21.954;2023-02-19T01:21:10;230.60;2099.20
55269;DHT22;41131;42.990;21.954;2023-02-19T01:23:36;230.60;2099.20
55269;DHT22;41131;42.990;21.954;2023-02-19T01:26:08;230.40;2124.80
55269;DHT22;41131;42.990;21.954;2023-02-19T01:28:34;205.70;2150.40
55269;DHT22;41131;42.990;21.954;2023-02-19T01:31:04;230.40;2150.40
55269;DHT22;41131;42.990;21.954;2023-02-19T01:33:32;205.70;2150.40
55269;DHT22;41131;42.990;21.954;2023-02-19T01:35:57;205.70;2150.40
55269;DHT22;41131;42.990;21.954;2023-02-19T01:38:23;205.70;2150.40
55269;DHT22;41131;42.990;21.954;2023-02-19T01:40:56;205.70;2150.40
55269;DHT22;41131;42.990;21.954;2023-02-19T01:43:23;205.60;2150.40
55269;DHT22;41131;42.990;21.954;2023-02-19T01:45:49;205.60;2150.40
55269;DHT22;41131;42.990;21.954;2023-02-19T01:50:48;205.50;2176.00
55269;DHT22;41131;42.990;21.954;2023-02-19T01:53:17;205.50;2176.00
55269;DHT22;41131;42.990;21.954;2023-02-19T01:55:45;205.50;2176.00
55269;DHT22;41131;42.990;21.954;2023-02-19T01:58:13;205.50;2176.00
55269;DHT22;41131;42.990;21.954;2023-02-19T02:00:40;205.50;2176.00
55269;DHT22;41131;42.990;21.954;2023-02-19T02:03:06;205.50;2176.00
55269;DHT22;41131;42.990;21.954;2023-02-19T02:06:01;205.40;2176.00
55269;DHT22;41131;42.990;21.954;2023-02-19T02:08:26;205.50;2176.00
55269;DHT22;41131;42.990;21.954;2023-02-19T02:11:11;205.40;2176.00
55269;DHT22;41131;42.990;21.954;2023-02-19T02:13:38;205.40;2176.00
55269;DHT22;41131;42.990;21.954;2023-02-19T02:19:14;205.30;2176.00
55269;DHT22;41131;42.990;21.954;2023-02-19T02:32:37;205.10;2201.60
55269;DHT22;41131;42.990;21.954;2023-02-19T02:35:08;205.00;2201.60
55269;DHT22;41131;42.990;21.954;2023-02-19T02:37:37;205.00;2201.60
55269;DHT22;41131;42.990;21.954;2023-02-19T02:40:04;205.00;2201.60
55269;DHT22;41131;42.990;21.954;2023-02-19T02:42:32;205.00;2201.60
55269;DHT22;41131;42.990;21.954;2023-02-19T02:48:20;205.00;2227.20
55269;DHT22;41131;42.990;21.954;2023-02-19T02:51:01;204.90;2227.20
55269;DHT22;41131;42.990;21.954;2023-02-19T02:53:46;180.10;2227.20
55269;DHT22;41131;42.990;21.954;2023-02-19T02:56:32;180.10;2227.20
55269;DHT22;41131;42.990;21.954;2023-02-19T02:59:00;180.10;2227.20
55269;DHT22;41131;42.990;21.954;2023-02-19T03:01:46;180.10;2227.20
55269;DHT22;41131;42.990;21.954;2023-02-19T03:10:33;180.10;2227.20
55269;DHT22;41131;42.990;21.954;2023-02-19T03:13:02;180.10;2227.20
55269;DHT22;41131;42.990;21.954;2023-02-19T03:15:55;180.00;2227.20
55269;DHT22;41131;42.990;21.954;2023-02-19T03:18:43;180.10;2227.20
55269;DHT22;41131;42.990;21.954;2023-02-19T03:21:29;180.00;2227.20
55269;DHT22;41131;42.990;21.954;2023-02-19T03:23:58;180.00;2227.20
55269;DHT22;41131;42.990;21.954;2023-02-19T03:26:44;179.90;2252.80
55269;DHT22;41131;42.990;21.954;2023-02-19T03:29:17;179.90;2227.20
55269;DHT22;41131;42.990;21.954;2023-02-19T03:31:59;179.90;2252.80
55269;DHT22;41131;42.990;21.954;2023-02-19T03:35:15;179.90;2252.80
55269;DHT22;41131;42.990;21.954;2023-02-19T03:37:25;180.00;2227.20
55269;DHT22;41131;42.990;21.954;2023-02-19T03:39:53;179.90;2252.80
55269;DHT22;41131;42.990;21.954;2023-02-19T03:42:22;179.80;2227.20
55269;DHT22;41131;42.990;21.954;2023-02-19T03:47:55;179.80;2252.80
55269;DHT22;41131;42.990;21.954;2023-02-19T03:50:29;179.70;2252.80
55269;DHT22;41131;42.990;21.954;2023-02-19T04:01:17;179.60;2252.80
55269;DHT22;41131;42.990;21.954;2023-02-19T04:04:11;179.60;2252.80
55269;DHT22;41131;42.990;21.954;2023-02-19T04:06:41;179.60;2252.80
55269;DHT22;41131;42.990;21.954;2023-02-19T04:09:09;179.60;2252.80
55269;DHT22;41131;42.990;21.954;2023-02-19T04:11:35;179.60;2252.80
55269;DHT22;41131;42.990;21.954;2023-02-19T04:14:15;179.70;2252.80
55269;DHT22;41131;42.990;21.954;2023-02-19T04:16:47;179.70;2252.80
55269;DHT22;41131;42.990;21.954;2023-02-19T04:19:18;179.60;2252.80
55269;DHT22;41131;42.990;21.954;2023-02-19T04:21:45;179.60;2252.80
55269;DHT22;41131;42.990;21.954;2023-02-19T04:24:34;179.60;2252.80
55269;DHT22;41131;42.990;21.954;2023-02-19T04:27:02;179.60;2252.80
55269;DHT22;41131;42.990;21.954;2023-02-19T04:29:29;179.70;2252.80
55269;DHT22;41131;42.990;21.954;2023-02-19T04:31:54;179.60;2252.80
55269;DHT22;41131;42.990;21.954;2023-02-19T04:34:20;179.70;2252.80
55269;DHT22;41131;42.990;21.954;2023-02-19T04:36:46;179.60;2252.80
55269;DHT22;41131;42.990;21.954;2023-02-19T04:39:11;179.60;2252.80
55269;DHT22;41131;42.990;21.954;2023-02-19T04:41:37;179.60;2252.80
55269;DHT22;41131;42.990;21.954;2023-02-19T04:44:03;179.60;2252.80
55269;DHT22;41131;42.990;21.954;2023-02-19T04:46:31;179.60;2252.80
55269;DHT22;41131;42.990;21.954;2023-02-19T04:48:57;179.60;2252.80
55269;DHT22;41131;42.990;21.954;2023-02-19T04:51:22;179.60;2252.80
55269;DHT22;41131;42.990;21.954;2023-02-19T04:53:48;179.60;2252.80
55269;DHT22;41131;42.990;21.954;2023-02-19T04:56:15;179.60;2252.80
55269;DHT22;41131;42.990;21.954;2023-02-19T04:58:42;179.60;2252.80
55269;DHT22;41131;42.990;21.954;2023-02-19T05:01:09;179.50;2252.80
55269;DHT22;41131;42.990;21.954;2023-02-19T05:03:35;179.50;2252.80
55269;DHT22;41131;42.990;21.954;2023-02-19T05:06:09;179.50;2252.80
55269;DHT22;41131;42.990;21.954;2023-02-19T05:08:36;179.50;2252.80
55269;DHT22;41131;42.990;21.954;2023-02-19T05:11:03;179.50;2252.80
55269;DHT22;41131;42.990;21.954;2023-02-19T05:13:30;179.40;2252.80
55269;DHT22;41131;42.990;21.954;2023-02-19T05:15:58;179.30;2252.80
55269;DHT22;41131;42.990;21.954;2023-02-19T05:18:25;179.20;2252.80
55269;DHT22;41131;42.990;21.954;2023-02-19T05:20:52;179.20;2252.80
55269;DHT22;41131;42.990;21.954;2023-02-19T05:23:19;154.50;2252.80
55269;DHT22;41131;42.990;21.954;2023-02-19T05:25:45;154.50;2252.80
55269;DHT22;41131;42.990;21.954;2023-02-19T05:28:11;154.50;2252.80
55269;DHT22;41131;42.990;21.954;2023-02-19T05:30:50;154.40;2252.80
55269;DHT22;41131;42.990;21.954;2023-02-19T05:33:18;154.30;2252.80
55269;DHT22;41131;42.990;21.954;2023-02-19T05:35:50;154.30;2252.80
55269;DHT22;41131;42.990;21.954;2023-02-19T05:38:16;154.30;2252.80
55269;DHT22;41131;42.990;21.954;2023-02-19T05:40:43;154.20;2252.80
55269;DHT22;41131;42.990;21.954;2023-02-19T05:43:10;154.20;2252.80
55269;DHT22;41131;42.990;21.954;2023-02-19T05:45:36;154.10;2252.80
55269;DHT22;41131;42.990;21.954;2023-02-19T05:48:02;154.10;2252.80
55269;DHT22;41131;42.990;21.954;2023-02-19T05:50:29;154.10;2252.80
55269;DHT22;41131;42.990;21.954;2023-02-19T05:52:55;154.00;2252.80
55269;DHT22;41131;42.990;21.954;2023-02-19T05:55:23;154.00;2252.80
55269;DHT22;41131;42.990;21.954;2023-02-19T05:57:49;154.00;2252.80
55269;DHT22;41131;42.990;21.954;2023-02-19T06:00:17;154.00;2252.80
55269;DHT22;41131;42.990;21.954;2023-02-19T06:02:43;153.90;2252.80
55269;DHT22;41131;42.990;21.954;2023-02-19T06:05:09;154.00;2252.80
55269;DHT22;41131;42.990;21.954;2023-02-19T06:07:36;153.90;2252.80
55269;DHT22;41131;42.990;21.954;2023-02-19T06:10:05;153.90;2252.80
55269;DHT22;41131;42.990;21.954;2023-02-19T06:12:30;153.90;2252.80
55269;DHT22;41131;42.990;21.954;2023-02-19T06:14:56;154.00;2252.80
55269;DHT22;41131;42.990;21.954;2023-02-19T06:17:22;154.10;2252.80
55269;DHT22;41131;42.990;21.954;2023-02-19T06:19:48;154.10;2252.80
55269;DHT22;41131;42.990;21.954;2023-02-19T06:22:15;154.10;2252.80
55269;DHT22;41131;42.990;21.954;2023-02-19T06:24:40;154.10;2252.80
55269;DHT22;41131;42.990;21.954;2023-02-19T06:27:07;154.10;2252.80
55269;DHT22;41131;42.990;21.954;2023-02-19T06:29:33;154.20;2252.80
55269;DHT22;41131;42.990;21.954;2023-02-19T06:31:59;154.20;2252.80
55269;DHT22;41131;42.990;21.954;2023-02-19T06:34:25;154.20;2252.80
55269;DHT22;41131;42.990;21.954;2023-02-19T06:36:51;154.30;2252.80
55269;DHT22;41131;42.990;21.954;2023-02-19T06:39:17;154.40;2252.80
55269;DHT22;41131;42.990;21.954;2023-02-19T06:41:43;154.40;2252.80
55269;DHT22;41131;42.990;21.954;2023-02-19T06:44:09;179.20;2252.80
55269;DHT22;41131;42.990;21.954;2023-02-19T06:46:34;179.20;2252.80
55269;DHT22;41131;42.990;21.954;2023-02-19T06:49:02;179.30;2252.80
55269;DHT22;41131;42.990;21.954;2023-02-19T06:51:29;179.40;2252.80
55269;DHT22;41131;42.990;21.954;2023-02-19T06:53:57;179.50;2252.80
55269;DHT22;41131;42.990;21.954;2023-02-19T06:56:29;179.60;2252.80
55269;DHT22;41131;42.990;21.954;2023-02-19T06:59:00;179.80;2252.80
55269;DHT22;41131;42.990;21.954;2023-02-19T07:01:30;179.90;2252.80
55269;DHT22;41131;42.990;21.954;2023-02-19T07:03:56;180.10;2252.80
55269;DHT22;41131;42.990;21.954;2023-02-19T07:06:23;204.90;2252.80
55269;DHT22;41131;42.990;21.954;2023-02-19T07:08:50;205.00;2252.80
55269;DHT22;41131;42.990;21.954;2023-02-19T07:11:16;205.20;2252.80
55269;DHT22;41131;42.990;21.954;2023-02-19T07:13:43;205.20;2252.80
55269;DHT22;41131;42.990;21.954;2023-02-19T07:16:09;205.40;2252.80
55269;DHT22;41131;42.990;21.954;2023-02-19T07:18:36;205.50;2252.80
55269;DHT22;41131;42.990;21.954;2023-02-19T07:21:03;205.70;2227.20
55269;DHT22;41131;42.990;21.954;2023-02-19T07:23:32;230.40;2227.20
55269;DHT22;41131;42.990;21.954;2023-02-19T07:25:58;230.50;2227.20
55269;DHT22;41131;42.990;21.954;2023-02-19T07:28:24;230.70;2227.20
55269;DHT22;41131;42.990;21.954;2023-02-19T07:30:49;230.80;2201.60
55269;DHT22;41131;42.990;21.954;2023-02-19T07:33:15;230.90;2201.60
55269;DHT22;41131;42.990;21.954;2023-02-19T07:35:48;230.90;2201.60
55269;DHT22;41131;42.990;21.954;2023-02-19T07:38:22;256.00;2150.40
55269;DHT22;41131;42.990;21.954;2023-02-19T07:40:56;231.20;2227.20
55269;DHT22;41131;42.990;21.954;2023-02-19T07:43:23;231.30;2176.00
55269;DHT22;41131;42.990;21.954;2023-02-19T07:45:50;256.00;2176.00
55269;DHT22;41131;42.990;21.954;2023-02-19T07:48:16;256.10;2150.40
55269;DHT22;41131;42.990;21.954;2023-02-19T07:50:58;256.30;2124.80
55269;DHT22;41131;42.990;21.954;2023-02-19T07:53:24;256.50;2124.80
55269;DHT22;41131;42.990;21.954;2023-02-19T07:55:51;256.50;2099.20
55269;DHT22;41131;42.990;21.954;2023-02-19T07:58:17;256.70;2099.20
55269;DHT22;41131;42.990;21.954;2023-02-19T08:00:43;256.80;2099.20
55269;DHT22;41131;42.990;21.954;2023-02-19T08:03:09;281.60;2073.60
55269;DHT22;41131;42.990;21.954;2023-02-19T08:05:40;281.80;2073.60
55269;DHT22;41131;42.990;21.954;2023-02-19T08:08:11;281.80;2073.60
55269;DHT22;41131;42.990;21.954;2023-02-19T08:10:37;282.00;2048.00
55269;DHT22;41131;42.990;21.954;2023-02-19T08:13:21;282.10;2048.00
55269;DHT22;41131;42.990;21.954;2023-02-19T08:15:49;282.40;2022.40
55269;DHT22;41131;42.990;21.954;2023-02-19T08:18:16;307.20;2022.40
55269;DHT22;41131;42.990;21.954;2023-02-19T08:20:42;282.50;1996.80
55269;DHT22;41131;42.990;21.954;2023-02-19T08:23:08;307.30;1996.80
55269;DHT22;41131;42.990;21.954;2023-02-19T08:25:35;307.30;2022.40
55269;DHT22;41131;42.990;21.954;2023-02-19T08:28:00;307.40;1996.80
55269;DHT22;41131;42.990;21.954;2023-02-19T08:30:27;307.60;1971.20
55269;DHT22;41131;42.990;21.954;2023-02-19T08:32:54;307.60;1945.60
55269;DHT22;41131;42.990;21.954;2023-02-19T08:35:20;307.80;1920.00
55269;DHT22;41131;42.990;21.954;2023-02-19T08:37:46;307.90;1945.60
55269;DHT22;41131;42.990;21.954;2023-02-19T08:40:11;308.00;1920.00
55269;DHT22;41131;42.990;21.954;2023-02-19T08:42:39;307.90;1920.00
55269;DHT22;41131;42.990;21.954;2023-02-19T08:45:05;308.10;1920.00
55269;DHT22;41131;42.990;21.954;2023-02-19T08:47:35;332.90;1945.60
55269;DHT22;41131;42.990;21.954;2023-02-19T08:50:01;332.90;1920.00
55269;DHT22;41131;42.990;21.954;2023-02-19T08:52:27;332.90;1894.40
55269;DHT22;41131;42.990;21.954;2023-02-19T08:54:53;333.20;1920.00
55269;DHT22;41131;42.990;21.954;2023-02-19T08:57:19;333.20;1868.80
55269;DHT22;41131;42.990;21.954;2023-02-19T08:59:44;333.20;1894.40
55269;DHT22;41131;42.990;21.954;2023-02-19T09:02:10;333.40;1868.80
55269;DHT22;41131;42.990;21.954;2023-02-19T09:04:37;333.40;1868.80
55269;DHT22;41131;42.990;21.954;2023-02-19T09:07:04;333.60;1868.80
55269;DHT22;41131;42.990;21.954;2023-02-19T09:09:32;333.70;1868.80
55269;DHT22;41131;42.990;21.954;2023-02-19T09:11:58;358.40;1843.20
55269;DHT22;41131;42.990;21.954;2023-02-19T09:14:26;358.60;1817.60
55269;DHT22;41131;42.990;21.954;2023-02-19T09:16:51;358.70;1817.60
55269;DHT22;41131;42.990;21.954;2023-02-19T09:19:17;358.80;1817.60
55269;DHT22;41131;42.990;21.954;2023-02-19T09:21:43;358.80;1792.00
55269;DHT22;41131;42.990;21.954;2023-02-19T09:24:09;359.00;1766.40
55269;DHT22;41131;42.990;21.954;2023-02-19T09:26:34;359.00;1740.80
55269;DHT22;41131;42.990;21.954;2023-02-19T09:29:00;384.00;1715.20
55269;DHT22;41131;42.990;21.954;2023-02-19T09:31:26;384.10;1715.20
55269;DHT22;41131;42.990;21.954;2023-02-19T09:33:51;359.30;1715.20
55269;DHT22;41131;42.990;21.954;2023-02-19T09:36:17;359.20;1740.80
55269;DHT22;41131;42.990;21.954;2023-02-19T09:38:44;359.30;1740.80
55269;DHT22;41131;42.990;21.954;2023-02-19T09:41:28;384.00;1740.80
55269;DHT22;41131;42.990;21.954;2023-02-19T09:43:56;384.00;1740.80
55269;DHT22;41131;42.990;21.954;2023-02-19T09:46:30;384.20;1715.20
55269;DHT22;41131;42.990;21.954;2023-02-19T09:49:02;384.30;1689.60
55269;DHT22;41131;42.990;21.954;2023-02-19T09:51:32;384.30;1664.00
55269;DHT22;41131;42.990;21.954;2023-02-19T09:54:00;384.80;1664.00
55269;DHT22;41131;42.990;21.954;2023-02-19T09:56:26;384.60;1664.00
55269;DHT22;41131;42.990;21.954;2023-02-19T09:58:54;409.60;1689.60
55269;DHT22;41131;42.990;21.954;2023-02-19T11:52:37;461.70;1484.80
55269;DHT22;41131;42.990;21.954;2023-02-19T12:56:19;486.80;1356.80
55269;DHT22;41131;42.990;21.954;2023-02-19T12:58:51;486.60;1408.00
55269;DHT22;41131;42.990;21.954;2023-02-19T13:01:27;486.50;1382.40
55269;DHT22;41131;42.990;21.954;2023-02-19T13:06:50;486.40;1382.40
55269;DHT22;41131;42.990;21.954;2023-02-19T13:09:26;486.40;1408.00
55269;DHT22;41131;42.990;21.954;2023-02-19T13:16:53;486.50;1408.00
55269;DHT22;41131;42.990;21.954;2023-02-19T13:19:21;486.40;1408.00
55269;DHT22;41131;42.990;21.954;2023-02-19T13:21:51;486.40;1408.00
55269;DHT22;41131;42.990;21.954;2023-02-19T13:24:39;486.50;1382.40
55269;DHT22;41131;42.990;21.954;2023-02-19T13:27:22;486.60;1408.00
55269;DHT22;41131;42.990;21.954;2023-02-19T16:24:31;435.40;1536.00
55269;DHT22;41131;42.990;21.954;2023-02-19T16:26:57;435.20;1561.60
55269;DHT22;41131;42.990;21.954;2023-02-19T16:29:28;435.20;1587.20
55269;DHT22;41131;42.990;21.954;2023-02-19T17:24:38;410.20;1638.40
55269;DHT22;41131;42.990;21.954;2023-02-19T17:27:04;410.30;1638.40
55269;DHT22;41131;42.990;21.954;2023-02-19T17:29:30;410.00;1638.40
55269;DHT22;41131;42.990;21.954;2023-02-19T17:56:22;409.60;1689.60
55269;DHT22;41131;42.990;21.954;2023-02-19T17:58:49;384.90;1740.80
55269;DHT22;41131;42.990;21.954;2023-02-19T18:01:15;384.80;1689.60
